Time;durP1;ratioP1;P1;durP2;ratioP2;P2;SDS_P1;SDS_P2;PMS_P1;PMS_P2;Temp;Humidity;BMP_temperature;BMP_pressure;BME280_temperature;BME280_humidity;BME280_pressure;Samples;Min_cycle;Max_cycle;Signal;HPM_P1;HPM_P2
2022/12/29 00:02:15;;;;;;;4.95;2.67;;;11.90;96.20;;;;;;5046681;28;20072;-76
2022/12/29 00:04:40;;;;;;;5.82;2.72;;;11.90;95.70;;;;;;5054144;28;20020;-75
2022/12/29 00:07:06;;;;;;;4.95;3.00;;;12.00;95.80;;;;;;5031552;28;20101;-75
2022/12/29 00:09:33;;;;;;;8.38;3.65;;;12.00;95.90;;;;;;5045459;28;20040;-75
2022/12/29 00:12:00;;;;;;;4.30;2.83;;;12.00;95.80;;;;;;5046150;28;20043;-75
2022/12/29 00:17:10;;;;;;;4.07;2.60;;;12.00;95.60;;;;;;5038947;28;20059;-76
2022/12/29 00:36:15;;;;;;;5.10;2.70;;;11.90;95.90;;;;;;5059308;28;20035;-75
2022/12/29 00:44:15;;;;;;;5.03;2.95;;;12.00;95.70;;;;;;5046169;28;20027;-75
2022/12/29 00:46:42;;;;;;;7.75;3.30;;;12.00;95.40;;;;;;5033515;28;20384;-75
2022/12/29 00:51:56;;;;;;;5.57;2.63;;;12.00;95.70;;;;;;5032271;28;20040;-75
2022/12/29 00:54:22;;;;;;;4.47;2.53;;;12.00;95.90;;;;;;5044128;28;20048;-74
2022/12/29 00:56:49;;;;;;;6.22;2.75;;;12.00;96.10;;;;;;5029829;28;20100;-75
2022/12/29 00:59:15;;;;;;;5.63;2.83;;;12.00;95.80;;;;;;5029561;28;20024;-74
2022/12/29 01:01:41;;;;;;;5.18;2.40;;;12.10;95.60;;;;;;5054542;28;20071;-75
2022/12/29 01:04:08;;;;;;;4.32;2.28;;;12.00;95.40;;;;;;5020167;28;20028;-74
2022/12/29 01:06:35;;;;;;;3.63;2.10;;;12.10;95.60;;;;;;5052940;28;20463;-75
2022/12/29 01:11:46;;;;;;;5.45;2.53;;;11.90;96.10;;;;;;5040446;28;20109;-75
2022/12/29 01:14:11;;;;;;;6.03;1.75;;;11.90;96.10;;;;;;5030419;28;20100;-75
2022/12/29 01:16:37;;;;;;;3.30;1.38;;;12.00;95.70;;;;;;5052043;28;20037;-75
2022/12/29 01:19:03;;;;;;;4.00;1.48;;;12.00;95.60;;;;;;5017402;28;20036;-74
2022/12/29 01:21:29;;;;;;;4.32;1.48;;;12.00;95.70;;;;;;5057786;28;20103;-74
2022/12/29 01:23:55;;;;;;;2.95;1.35;;;11.90;95.80;;;;;;5037675;28;20018;-75
2022/12/29 01:26:21;;;;;;;3.85;1.33;;;12.00;95.40;;;;;;5047968;28;20055;-77
2022/12/29 01:28:46;;;;;;;3.65;1.13;;;12.00;95.50;;;;;;5018302;28;20040;-73
2022/12/29 01:31:14;;;;;;;4.47;1.83;;;12.00;95.40;;;;;;5043687;28;20017;-73
2022/12/29 01:33:40;;;;;;;3.17;1.38;;;12.00;95.70;;;;;;5064698;28;20028;-74
2022/12/29 01:36:09;;;;;;;3.25;1.42;;;12.00;95.90;;;;;;5008020;28;20557;-74
2022/12/29 01:38:36;;;;;;;2.20;1.17;;;12.00;95.90;;;;;;5061308;28;20534;-74
2022/12/29 01:41:01;;;;;;;3.80;1.13;;;11.90;95.50;;;;;;5037222;28;20027;-74
2022/12/29 01:43:50;;;;;;;4.85;1.50;;;11.90;95.80;;;;;;5047908;28;20030;-74
2022/12/29 01:46:26;;;;;;;2.78;1.35;;;11.90;96.00;;;;;;5029175;28;20029;-74
2022/12/29 01:49:02;;;;;;;4.75;1.05;;;11.80;96.40;;;;;;5044485;28;20034;-74
2022/12/29 01:51:33;;;;;;;2.83;1.00;;;11.90;95.70;;;;;;5035676;28;20028;-73
2022/12/29 01:54:03;;;;;;;2.92;1.38;;;11.80;96.20;;;;;;5040117;28;20029;-74
2022/12/29 01:56:29;;;;;;;3.42;1.42;;;11.80;96.00;;;;;;5045160;28;20021;-73
2022/12/29 01:59:06;;;;;;;4.70;1.77;;;11.80;95.90;;;;;;5046956;28;20763;-74
2022/12/29 02:01:32;;;;;;;2.45;1.20;;;11.80;96.30;;;;;;5048761;28;20033;-74
2022/12/29 02:03:58;;;;;;;1.75;1.20;;;11.80;96.20;;;;;;5058311;28;20390;-73
2022/12/29 02:06:32;;;;;;;4.50;1.60;;;11.70;96.20;;;;;;5048128;28;21041;-75
2022/12/29 02:08:58;;;;;;;4.25;1.20;;;11.80;96.60;;;;;;5036480;28;20061;-74
2022/12/29 02:11:26;;;;;;;2.88;1.40;;;11.80;96.50;;;;;;5038130;28;20027;-76
2022/12/29 02:13:52;;;;;;;1.88;1.00;;;11.80;96.90;;;;;;5044279;28;20028;-74
2022/12/29 02:16:35;;;;;;;1.92;1.27;;;11.80;96.60;;;;;;5014512;28;20354;-75
2022/12/29 02:19:27;;;;;;;4.00;1.65;;;11.80;96.90;;;;;;5033143;28;20405;-74
2022/12/29 02:22:21;;;;;;;4.13;1.67;;;11.80;96.30;;;;;;5041853;28;20086;-75
2022/12/29 02:24:58;;;;;;;7.80;1.90;;;11.80;96.60;;;;;;5047000;28;20041;-73
2022/12/29 02:27:48;;;;;;;3.17;1.67;;;11.80;97.30;;;;;;5039063;28;20505;-74
2022/12/29 02:30:29;;;;;;;;;;;11.80;97.60;;;;;;5027305;28;20030;-75
2022/12/29 02:33:13;;;;;;;4.60;1.58;;;11.80;97.20;;;;;;5040117;28;19908;-75
2022/12/29 02:35:53;;;;;;;4.95;1.80;;;11.90;97.40;;;;;;5048278;28;20719;-74
2022/12/29 02:38:31;;;;;;;5.87;2.30;;;11.90;97.30;;;;;;5040025;28;20290;-74
2022/12/29 02:41:14;;;;;;;6.15;1.90;;;11.90;97.70;;;;;;5015416;28;20291;-74
2022/12/29 02:43:52;;;;;;;4.75;1.88;;;11.90;97.40;;;;;;5030403;28;20045;-75
2022/12/29 02:46:35;;;;;;;4.13;1.90;;;11.90;97.70;;;;;;5037000;28;20025;-75
2022/12/29 02:49:11;;;;;;;5.63;2.58;;;11.90;97.80;;;;;;5053456;28;20538;-76
2022/12/29 02:51:52;;;;;;;4.60;1.80;;;11.90;97.60;;;;;;5039576;28;20110;-77
2022/12/29 02:57:04;;;;;;;5.57;1.90;;;11.90;97.30;;;;;;5032177;28;20036;-75
2022/12/29 02:59:30;;;;;;;4.10;1.42;;;11.80;97.50;;;;;;5053363;28;20497;-75
2022/12/29 03:02:20;;;;;;;7.05;1.75;;;11.80;97.20;;;;;;5041494;28;20021;-75
2022/12/29 03:05:04;;;;;;;2.38;0.90;;;11.80;96.80;;;;;;5045228;28;20104;-75
2022/12/29 03:07:42;;;;;;;3.60;1.25;;;11.90;96.10;;;;;;5044165;28;20513;-74
2022/12/29 03:10:24;;;;;;;5.75;1.80;;;12.00;96.00;;;;;;5042179;28;20025;-74
2022/12/29 03:16:20;;;;;;;7.82;1.10;;;12.00;95.50;;;;;;5058908;28;20056;-75
2022/12/29 03:19:01;;;;;;;5.93;1.23;;;12.10;95.30;;;;;;5034753;28;20397;-76
2022/12/29 03:24:28;;;;;;;6.07;1.35;;;12.00;96.10;;;;;;5069983;28;20043;-74
2022/12/29 03:26:58;;;;;;;5.13;1.00;;;11.90;96.70;;;;;;5068184;28;20402;-75
2022/12/29 03:29:27;;;;;;;4.82;1.63;;;11.80;96.70;;;;;;5050388;28;20043;-75
2022/12/29 03:31:56;;;;;;;2.57;1.00;;;11.70;96.90;;;;;;5057305;28;20467;-75
2022/12/29 03:34:23;;;;;;;4.05;1.20;;;11.70;96.70;;;;;;5017544;28;20031;-75
2022/12/29 03:37:00;;;;;;;4.57;1.13;;;11.80;96.60;;;;;;5056588;28;20103;-75
2022/12/29 03:39:26;;;;;;;5.13;0.93;;;11.70;96.50;;;;;;5036170;28;20052;-75
2022/12/29 03:42:01;;;;;;;4.93;1.20;;;11.80;96.40;;;;;;5043609;28;20029;-73
2022/12/29 03:44:36;;;;;;;7.03;1.35;;;11.80;96.10;;;;;;5022547;28;20025;-75
2022/12/29 03:47:02;;;;;;;4.85;1.05;;;11.80;96.30;;;;;;5053278;28;20064;-74
2022/12/29 03:49:28;;;;;;;5.72;1.23;;;11.80;96.20;;;;;;5041818;28;20037;-75
2022/12/29 03:51:54;;;;;;;4.80;1.38;;;11.80;96.10;;;;;;5055837;28;20074;-75
2022/12/29 03:54:19;;;;;;;6.47;1.05;;;11.90;95.80;;;;;;5046955;28;20399;-77
2022/12/29 03:56:45;;;;;;;5.20;1.27;;;11.90;95.90;;;;;;5044065;28;20100;-75
2022/12/29 03:59:10;;;;;;;3.40;0.75;;;11.90;95.90;;;;;;5041494;28;20029;-75
2022/12/29 04:01:36;;;;;;;6.25;1.00;;;11.90;95.90;;;;;;5051591;28;20391;-76
2022/12/29 04:04:02;;;;;;;4.03;0.90;;;11.90;95.70;;;;;;5044518;28;20030;-76
2022/12/29 04:06:27;;;;;;;3.10;1.60;;;12.00;95.50;;;;;;5039289;28;20029;-75
2022/12/29 04:08:53;;;;;;;4.57;1.08;;;12.00;95.40;;;;;;5038247;28;20044;-75
2022/12/29 04:11:18;;;;;;;4.95;1.00;;;12.00;95.30;;;;;;5040713;28;20033;-75
2022/12/29 04:13:44;;;;;;;7.30;1.35;;;11.90;95.10;;;;;;5040803;28;20809;-75
2022/12/29 04:16:10;;;;;;;4.75;1.00;;;12.00;95.20;;;;;;5046963;28;20105;-74
2022/12/29 04:18:35;;;;;;;5.43;1.50;;;12.00;95.20;;;;;;5068848;28;20111;-75
2022/12/29 04:21:02;;;;;;;6.13;1.00;;;11.90;95.00;;;;;;5040985;28;20021;-75
2022/12/29 04:23:29;;;;;;;2.53;0.98;;;12.00;94.90;;;;;;5055281;28;20021;-76
2022/12/29 04:25:54;;;;;;;4.40;0.80;;;12.00;94.80;;;;;;5048595;28;20136;-76
2022/12/29 04:28:20;;;;;;;6.78;1.05;;;12.00;94.80;;;;;;5041561;28;20104;-76
2022/12/29 04:30:46;;;;;;;4.75;0.95;;;11.90;94.80;;;;;;5047949;28;20083;-75
2022/12/29 04:33:14;;;;;;;3.47;0.75;;;11.90;94.90;;;;;;5047091;28;20042;-75
2022/12/29 04:35:40;;;;;;;4.97;1.35;;;12.00;94.80;;;;;;5017100;28;20506;-76
2022/12/29 04:38:05;;;;;;;5.53;0.95;;;12.00;94.60;;;;;;5047169;28;20037;-76
2022/12/29 04:40:31;;;;;;;3.13;0.90;;;11.90;94.40;;;;;;5024528;28;20829;-76
2022/12/29 04:42:56;;;;;;;4.38;1.05;;;11.90;94.50;;;;;;5049862;28;20055;-75
2022/12/29 04:45:22;;;;;;;7.25;1.58;;;12.00;94.60;;;;;;5046763;28;20029;-75
2022/12/29 04:47:48;;;;;;;5.53;1.13;;;11.90;94.80;;;;;;5038010;28;20033;-74
2022/12/29 04:50:13;;;;;;;3.50;0.68;;;11.90;94.70;;;;;;5052960;28;20036;-75
2022/12/29 04:52:39;;;;;;;5.55;1.25;;;11.90;94.70;;;;;;5049342;28;20048;-76
2022/12/29 04:55:06;;;;;;;4.28;0.95;;;11.90;94.70;;;;;;5041987;28;20479;-76
2022/12/29 04:57:32;;;;;;;5.00;1.65;;;11.80;94.60;;;;;;5007990;28;20032;-75
2022/12/29 04:59:57;;;;;;;6.63;1.33;;;11.70;94.90;;;;;;5050440;28;20032;-76
2022/12/29 05:02:23;;;;;;;4.38;1.10;;;11.70;94.90;;;;;;5048994;28;20024;-76
2022/12/29 05:04:49;;;;;;;5.18;1.58;;;11.70;94.80;;;;;;5053420;28;20025;-75
2022/12/29 05:07:15;;;;;;;7.43;1.10;;;11.60;94.60;;;;;;5040764;28;20021;-75
2022/12/29 05:09:41;;;;;;;5.40;1.38;;;11.60;94.40;;;;;;5060637;28;20036;-75
2022/12/29 05:12:06;;;;;;;7.70;1.70;;;11.60;94.00;;;;;;5038557;28;20075;-74
2022/12/29 05:14:32;;;;;;;7.75;1.23;;;11.50;93.90;;;;;;5054510;28;20127;-76
2022/12/29 05:16:58;;;;;;;4.63;1.10;;;11.60;94.00;;;;;;5042169;28;20037;-76
2022/12/29 05:19:23;;;;;;;6.82;1.13;;;11.60;93.80;;;;;;5025522;28;20033;-74
2022/12/29 05:21:49;;;;;;;7.10;1.17;;;11.50;93.10;;;;;;5044024;28;20419;-75
2022/12/29 05:24:15;;;;;;;8.45;1.27;;;11.50;93.10;;;;;;5040821;28;20032;-75
2022/12/29 05:26:41;;;;;;;8.75;1.17;;;11.50;93.10;;;;;;5020724;28;20026;-76
2022/12/29 05:29:07;;;;;;;4.55;1.00;;;11.50;93.30;;;;;;5041082;28;20562;-74
2022/12/29 05:31:33;;;;;;;6.10;1.00;;;11.50;93.40;;;;;;5032804;28;20026;-76
2022/12/29 05:33:58;;;;;;;3.45;0.95;;;11.50;93.70;;;;;;5034856;28;20017;-75
2022/12/29 05:36:24;;;;;;;7.82;1.48;;;11.60;93.80;;;;;;5042610;28;20391;-74
2022/12/29 05:38:50;;;;;;;7.78;1.50;;;11.50;94.30;;;;;;5040757;28;20017;-75
2022/12/29 05:41:16;;;;;;;3.83;1.02;;;11.50;94.70;;;;;;5063826;28;20024;-75
2022/12/29 05:43:44;;;;;;;6.05;1.30;;;11.40;95.00;;;;;;5052056;28;20032;-75
2022/12/29 05:46:09;;;;;;;7.30;1.40;;;11.40;95.10;;;;;;5040974;28;21698;-74
2022/12/29 05:48:35;;;;;;;4.00;1.35;;;11.40;95.20;;;;;;5029950;28;20037;-76
2022/12/29 05:51:00;;;;;;;2.90;0.93;;;11.30;95.20;;;;;;5062791;28;20013;-76
2022/12/29 05:53:26;;;;;;;5.50;1.85;;;11.30;95.20;;;;;;5046543;28;20036;-74
2022/12/29 05:55:52;;;;;;;5.93;1.83;;;11.20;95.10;;;;;;5047680;28;20102;-75
2022/12/29 05:58:17;;;;;;;4.70;1.05;;;11.10;95.10;;;;;;5042057;28;20063;-76
2022/12/29 06:00:44;;;;;;;5.25;1.20;;;11.10;95.00;;;;;;5051410;28;20392;-75
2022/12/29 06:03:09;;;;;;;3.28;0.95;;;11.10;95.00;;;;;;5028565;28;20032;-76
2022/12/29 06:05:35;;;;;;;6.65;1.58;;;11.00;95.00;;;;;;5046107;28;20017;-75
2022/12/29 06:08:01;;;;;;;8.82;1.52;;;11.00;95.00;;;;;;5034253;28;20037;-75
2022/12/29 06:10:27;;;;;;;5.57;1.40;;;11.00;95.00;;;;;;5037263;28;20093;-75
2022/12/29 06:12:52;;;;;;;4.55;1.48;;;11.00;95.00;;;;;;5038263;28;20049;-76
2022/12/29 06:15:18;;;;;;;9.48;1.67;;;11.00;94.90;;;;;;5040119;28;20595;-75
2022/12/29 06:17:44;;;;;;;9.95;1.95;;;11.10;94.80;;;;;;5029366;28;20025;-76
2022/12/29 06:20:10;;;;;;;7.30;1.30;;;11.10;94.50;;;;;;5038029;28;20016;-75
2022/12/29 06:22:36;;;;;;;7.88;1.35;;;11.00;94.30;;;;;;5047576;28;20048;-74
2022/12/29 06:25:02;;;;;;;9.98;1.75;;;11.00;94.40;;;;;;5037679;28;20403;-74
2022/12/29 06:27:28;;;;;;;8.55;1.83;;;11.10;94.30;;;;;;5057769;28;20019;-75
2022/12/29 06:29:54;;;;;;;8.20;1.23;;;11.00;94.10;;;;;;5039495;28;20033;-76
2022/12/29 06:32:20;;;;;;;9.13;2.15;;;11.00;93.80;;;;;;5052890;28;20028;-75
2022/12/29 06:34:46;;;;;;;7.53;1.35;;;11.00;93.90;;;;;;5035514;28;20021;-75
2022/12/29 06:37:12;;;;;;;7.90;1.20;;;11.00;93.70;;;;;;5043765;28;20088;-75
2022/12/29 06:39:38;;;;;;;10.95;1.65;;;11.00;93.60;;;;;;5031262;28;20022;-75
2022/12/29 06:42:04;;;;;;;7.50;1.85;;;11.00;93.50;;;;;;5058194;28;20057;-75
2022/12/29 06:44:29;;;;;;;7.55;1.55;;;11.00;93.20;;;;;;5019971;28;20029;-74
2022/12/29 06:46:57;;;;;;;12.25;1.50;;;11.00;93.00;;;;;;5049262;28;20905;-76
2022/12/29 06:49:23;;;;;;;10.70;1.67;;;11.00;93.00;;;;;;5056212;28;20033;-75
2022/12/29 06:51:48;;;;;;;11.65;2.67;;;11.00;93.10;;;;;;5044135;28;20112;-76
2022/12/29 06:54:14;;;;;;;11.00;2.00;;;11.00;93.00;;;;;;5050751;28;20064;-75
2022/12/29 06:56:40;;;;;;;8.45;1.77;;;11.00;92.90;;;;;;5043809;28;20737;-74
2022/12/29 06:59:06;;;;;;;7.63;1.75;;;11.10;92.90;;;;;;5040013;28;20021;-75
2022/12/29 07:01:31;;;;;;;13.70;2.22;;;11.00;92.80;;;;;;5043370;28;20021;-74
2022/12/29 07:03:59;;;;;;;7.90;1.42;;;11.00;92.70;;;;;;5052943;28;20033;-75
2022/12/29 07:06:25;;;;;;;9.38;1.40;;;11.10;92.90;;;;;;5036434;28;20032;-74
2022/12/29 07:08:50;;;;;;;7.93;1.58;;;11.10;92.50;;;;;;5039930;28;20091;-75
2022/12/29 07:11:16;;;;;;;5.72;0.88;;;11.10;92.30;;;;;;5036943;28;20026;-75
2022/12/29 07:13:42;;;;;;;6.97;1.38;;;11.10;92.20;;;;;;5052986;28;20022;-75
2022/12/29 07:16:08;;;;;;;7.97;1.85;;;11.20;92.00;;;;;;5031124;28;20431;-75
2022/12/29 07:18:34;;;;;;;5.10;1.10;;;11.20;92.20;;;;;;5051465;28;20026;-76
2022/12/29 07:21:00;;;;;;;12.82;2.17;;;11.20;92.00;;;;;;5035713;28;20030;-75
2022/12/29 07:23:25;;;;;;;4.90;1.00;;;11.10;91.80;;;;;;5046639;28;20025;-74
2022/12/29 07:25:59;;;;;;;7.75;1.55;;;11.20;92.00;;;;;;5031039;28;20577;-74
2022/12/29 07:28:25;;;;;;;9.13;1.65;;;11.20;91.90;;;;;;5048159;28;20098;-75
2022/12/29 07:30:50;;;;;;;10.75;1.60;;;11.20;91.80;;;;;;5041570;28;20483;-74
2022/12/29 07:33:16;;;;;;;7.53;1.50;;;11.30;92.00;;;;;;5043370;28;20025;-74
2022/12/29 07:35:42;;;;;;;7.40;1.92;;;11.30;91.80;;;;;;5043129;28;20070;-74
2022/12/29 07:38:07;;;;;;;10.98;1.25;;;11.20;91.70;;;;;;5043933;28;20037;-75
2022/12/29 07:40:33;;;;;;;7.82;1.50;;;11.20;91.70;;;;;;5037664;28;20049;-75
2022/12/29 07:43:00;;;;;;;12.65;1.90;;;11.30;91.90;;;;;;5039871;28;20023;-75
2022/12/29 07:45:25;;;;;;;7.30;1.10;;;11.30;91.90;;;;;;5044132;28;20026;-74
2022/12/29 07:47:51;;;;;;;8.43;1.77;;;11.30;91.80;;;;;;5035570;28;20036;-75
2022/12/29 07:50:16;;;;;;;5.97;1.48;;;11.20;91.60;;;;;;5024207;28;20037;-75
2022/12/29 07:52:42;;;;;;;7.72;1.77;;;11.20;91.50;;;;;;5040807;28;20025;-75
2022/12/29 07:55:08;;;;;;;10.25;2.40;;;11.30;91.70;;;;;;5043159;28;20069;-75
2022/12/29 07:57:37;;;;;;;7.97;1.40;;;11.20;91.50;;;;;;5039925;28;20472;-75
2022/12/29 08:00:03;;;;;;;11.00;1.60;;;11.30;91.90;;;;;;5036821;28;20029;-74
2022/12/29 08:02:30;;;;;;;13.18;3.30;;;11.30;91.30;;;;;;5035917;28;20029;-74
2022/12/29 08:04:56;;;;;;;9.63;1.30;;;11.40;91.50;;;;;;5041809;28;20384;-75
2022/12/29 08:07:21;;;;;;;9.98;1.98;;;11.30;91.10;;;;;;5035758;28;20024;-74
2022/12/29 08:09:47;;;;;;;12.55;2.05;;;11.30;90.90;;;;;;5039248;28;20152;-74
2022/12/29 08:12:13;;;;;;;6.75;1.60;;;11.40;91.00;;;;;;5036992;28;20538;-74
2022/12/29 08:14:39;;;;;;;12.18;2.70;;;11.40;91.10;;;;;;5043045;28;20857;-75
2022/12/29 08:17:05;;;;;;;8.55;1.55;;;11.40;90.80;;;;;;5038114;28;20405;-74
2022/12/29 08:19:31;;;;;;;9.02;1.90;;;11.40;91.00;;;;;;5042751;28;20036;-75
2022/12/29 08:21:56;;;;;;;12.05;1.95;;;11.30;90.90;;;;;;5044117;28;20037;-76
2022/12/29 08:24:22;;;;;;;13.93;2.00;;;11.30;90.40;;;;;;5045207;28;20124;-73
2022/12/29 08:26:47;;;;;;;11.10;1.60;;;11.30;90.40;;;;;;5040762;28;20617;-74
2022/12/29 08:29:13;;;;;;;10.60;2.10;;;11.40;90.90;;;;;;5035119;28;20026;-74
2022/12/29 08:31:39;;;;;;;8.63;1.98;;;11.30;90.30;;;;;;5040573;28;20562;-75
2022/12/29 08:34:05;;;;;;;11.75;2.08;;;11.30;90.10;;;;;;5017842;28;20026;-74
2022/12/29 08:36:31;;;;;;;9.02;2.08;;;11.30;90.00;;;;;;5041540;28;20033;-74
2022/12/29 08:38:57;;;;;;;12.50;2.25;;;11.40;89.20;;;;;;5014884;28;20051;-74
2022/12/29 08:41:23;;;;;;;8.25;1.83;;;11.40;89.30;;;;;;5040186;28;20017;-75
2022/12/29 08:43:49;;;;;;;13.45;1.90;;;11.40;89.00;;;;;;5037161;28;20352;-75
2022/12/29 08:46:16;;;;;;;8.38;1.65;;;11.60;88.60;;;;;;5045063;28;20446;-74
2022/12/29 08:48:42;;;;;;;7.82;1.60;;;12.00;87.90;;;;;;5037614;28;20033;-74
2022/12/29 08:51:08;;;;;;;11.60;1.83;;;12.50;85.40;;;;;;5041359;28;20021;-75
2022/12/29 08:53:35;;;;;;;7.80;1.70;;;12.80;83.60;;;;;;5039285;28;20017;-75
2022/12/29 08:56:03;;;;;;;10.23;1.85;;;12.70;82.40;;;;;;5044331;28;20029;-76
2022/12/29 08:58:29;;;;;;;12.98;1.98;;;12.40;84.70;;;;;;5037122;28;20028;-75
2022/12/29 09:00:57;;;;;;;9.63;2.17;;;12.00;85.70;;;;;;5029878;28;20021;-75
2022/12/29 09:03:23;;;;;;;8.52;2.22;;;11.90;87.10;;;;;;5049931;28;20068;-74
2022/12/29 09:05:53;;;;;;;13.63;2.60;;;11.80;88.10;;;;;;5038526;28;20025;-76
2022/12/29 09:08:19;;;;;;;11.13;1.98;;;11.80;88.30;;;;;;5036347;28;20041;-77
2022/12/29 09:10:45;;;;;;;12.50;2.35;;;11.70;88.90;;;;;;5044284;28;20055;-79
2022/12/29 09:13:12;;;;;;;14.18;2.95;;;11.60;89.10;;;;;;5050119;28;20053;-77
2022/12/29 09:15:38;;;;;;;11.00;1.63;;;11.60;89.80;;;;;;5039154;28;20079;-77
2022/12/29 09:18:05;;;;;;;14.60;2.50;;;11.60;90.40;;;;;;5038360;28;20675;-73
2022/12/29 09:20:30;;;;;;;14.20;3.03;;;11.50;90.10;;;;;;5021303;28;20762;-76
2022/12/29 09:22:56;;;;;;;20.85;2.65;;;11.50;90.90;;;;;;5031315;28;20028;-73
2022/12/29 09:25:24;;;;;;;7.50;1.67;;;11.40;90.90;;;;;;5035422;28;20137;-74
2022/12/29 09:27:52;;;;;;;13.02;2.47;;;11.40;91.30;;;;;;5024563;28;20463;-74
2022/12/29 09:30:18;;;;;;;14.40;2.70;;;11.30;90.80;;;;;;5047430;28;20033;-79
2022/12/29 09:32:45;;;;;;;12.23;2.25;;;11.30;90.70;;;;;;5053081;28;20120;-77
2022/12/29 09:35:11;;;;;;;8.43;1.73;;;11.30;90.90;;;;;;5019585;28;20104;-78
2022/12/29 09:37:37;;;;;;;12.07;2.42;;;11.30;91.40;;;;;;5033027;28;20089;-73
2022/12/29 09:40:04;;;;;;;17.33;2.38;;;11.30;91.00;;;;;;5028974;28;20021;-73
2022/12/29 09:42:34;;;;;;;12.73;2.63;;;11.30;91.50;;;;;;5011441;28;20021;-72
2022/12/29 09:45:09;;;;;;;12.77;2.05;;;11.20;90.90;;;;;;5028385;28;20018;-75
2022/12/29 09:47:35;;;;;;;10.73;2.22;;;11.30;90.90;;;;;;5014948;28;20466;-75
2022/12/29 09:50:08;;;;;;;9.68;2.30;;;11.20;91.10;;;;;;5027747;28;20126;-77
2022/12/29 09:52:45;;;;;;;11.55;2.63;;;11.20;91.30;;;;;;5014271;28;20111;-73
2022/12/29 09:55:18;;;;;;;9.10;2.15;;;11.10;91.40;;;;;;5028951;28;20095;-73
2022/12/29 09:57:47;;;;;;;11.63;2.30;;;11.10;92.10;;;;;;5034133;28;20039;-75
2022/12/29 10:00:16;;;;;;;8.45;1.70;;;11.00;91.80;;;;;;5033624;28;20024;-77
2022/12/29 10:03:12;;;;;;;8.43;1.63;;;11.10;92.10;;;;;;5036147;28;20376;-74
2022/12/29 10:05:44;;;;;;;10.50;2.15;;;11.00;92.30;;;;;;5030781;28;20078;-75
2022/12/29 10:08:32;;;;;;;16.23;2.58;;;11.00;92.70;;;;;;5033038;28;20036;-75
2022/12/29 10:11:04;;;;;;;16.45;2.17;;;10.90;93.20;;;;;;5013638;28;20025;-76
2022/12/29 10:13:49;;;;;;;14.82;3.00;;;10.90;93.60;;;;;;5031607;28;20484;-75
2022/12/29 10:16:29;;;;;;;8.35;1.67;;;10.80;93.80;;;;;;5031413;28;20029;-76
2022/12/29 10:19:19;;;;;;;10.93;2.42;;;10.80;94.10;;;;;;5013074;28;20061;-78
2022/12/29 10:22:30;;;;;;;11.88;2.05;;;10.70;94.30;;;;;;5028256;28;20610;-74
2022/12/29 10:24:56;;;;;;;9.30;1.88;;;10.70;94.60;;;;;;5008985;28;20037;-72
2022/12/29 10:27:23;;;;;;;8.85;1.58;;;10.60;94.90;;;;;;5030247;28;20013;-72
2022/12/29 10:29:54;;;;;;;7.68;1.65;;;10.60;95.40;;;;;;5033125;28;20033;-74
2022/12/29 10:32:33;;;;;;;10.15;2.05;;;10.70;95.30;;;;;;5028239;28;20028;-74
2022/12/29 10:35:06;;;;;;;11.77;1.80;;;10.70;95.40;;;;;;5029883;28;20517;-74
2022/12/29 10:37:46;;;;;;;8.45;2.45;;;10.60;95.60;;;;;;5015501;28;20017;-72
2022/12/29 10:40:32;;;;;;;;;;;10.40;96.00;;;;;;5033173;28;20021;-73
2022/12/29 10:42:59;;;;;;;15.98;2.80;;;10.50;96.00;;;;;;5028162;28;19970;-74
2022/12/29 10:45:33;;;;;;;10.10;1.60;;;10.40;96.20;;;;;;5027120;28;20022;-74
2022/12/29 10:48:10;;;;;;;12.15;2.30;;;10.30;96.50;;;;;;5025333;28;20032;-73
2022/12/29 10:50:42;;;;;;;6.85;1.73;;;10.30;96.50;;;;;;5029106;28;20033;-73
2022/12/29 10:53:17;;;;;;;11.82;2.60;;;10.30;96.60;;;;;;4999560;28;20103;-74
2022/12/29 10:55:44;;;;;;;9.90;2.67;;;10.30;96.70;;;;;;5021103;28;20026;-75
2022/12/29 10:58:18;;;;;;;11.75;2.13;;;10.30;96.70;;;;;;5027626;28;20041;-73
2022/12/29 11:00:51;;;;;;;9.88;2.22;;;10.30;96.90;;;;;;5013151;28;20044;-73
2022/12/29 11:03:46;;;;;;;7.93;2.25;;;10.30;97.20;;;;;;5027245;28;20152;-75
2022/12/29 11:06:25;;;;;;;10.13;2.42;;;10.30;97.20;;;;;;5033175;28;20083;-74
2022/12/29 11:09:01;;;;;;;9.35;3.30;;;10.30;97.20;;;;;;5027158;28;20860;-73
2022/12/29 11:11:37;;;;;;;16.17;2.90;;;10.30;97.00;;;;;;5030619;28;20023;-74
2022/12/29 11:14:13;;;;;;;13.13;3.00;;;10.30;97.10;;;;;;5025867;28;20024;-74
2022/12/29 11:16:41;;;;;;;11.63;3.28;;;10.30;97.20;;;;;;5032951;28;20026;-74
2022/12/29 11:19:23;;;;;;;10.05;2.95;;;10.30;97.40;;;;;;5031154;28;20060;-74
2022/12/29 11:21:49;;;;;;;10.70;3.22;;;10.40;96.90;;;;;;5031448;28;20080;-73
2022/12/29 11:24:29;;;;;;;11.43;3.03;;;10.40;97.00;;;;;;5028293;28;20112;-73
2022/12/29 11:27:08;;;;;;;13.40;2.75;;;10.60;96.80;;;;;;5037165;28;20079;-74
2022/12/29 11:29:41;;;;;;;17.30;3.37;;;10.60;96.70;;;;;;5037419;28;20045;-79
2022/12/29 11:32:24;;;;;;;12.27;2.25;;;10.70;96.20;;;;;;5035973;28;20017;-74
2022/12/29 11:34:50;;;;;;;14.57;3.55;;;10.60;95.90;;;;;;5035788;28;20034;-73
2022/12/29 11:37:28;;;;;;;15.77;3.63;;;10.70;96.10;;;;;;5034916;28;20034;-73
2022/12/29 11:40:05;;;;;;;16.17;4.45;;;10.70;96.30;;;;;;5035876;28;20065;-73
2022/12/29 11:42:39;;;;;;;14.88;4.68;;;10.70;96.30;;;;;;5036274;28;20103;-73
2022/12/29 11:45:23;;;;;;;20.45;4.90;;;10.70;96.10;;;;;;5034408;28;20502;-76
2022/12/29 11:48:14;;;;;;;13.88;4.18;;;10.80;95.80;;;;;;5036730;28;20021;-76
2022/12/29 11:50:42;;;;;;;13.27;4.50;;;10.80;95.90;;;;;;5035772;28;20030;-77
2022/12/29 11:53:28;;;;;;;15.98;4.65;;;10.80;95.80;;;;;;5037672;28;20014;-78
2022/12/29 11:56:08;;;;;;;21.73;4.88;;;10.90;95.60;;;;;;5035319;28;20025;-75
2022/12/29 11:58:36;;;;;;;14.73;4.43;;;10.90;95.60;;;;;;5023834;28;20507;-76
2022/12/29 12:01:10;;;;;;;12.60;4.43;;;10.90;95.50;;;;;;5032287;28;20410;-75
2022/12/29 12:03:40;;;;;;;13.07;3.42;;;10.80;95.40;;;;;;5032717;28;20026;-74
2022/12/29 12:06:07;;;;;;;;;;;10.90;95.40;;;;;;5034028;28;20021;-76
2022/12/29 12:08:48;;;;;;;15.95;4.93;;;10.90;95.20;;;;;;5024477;28;19925;-75
2022/12/29 12:11:40;;;;;;;18.98;4.55;;;10.80;95.20;;;;;;5028324;28;20017;-75
2022/12/29 12:14:15;;;;;;;16.52;4.47;;;10.80;95.40;;;;;;5037475;28;20050;-75
2022/12/29 12:16:50;;;;;;;13.02;4.05;;;10.80;95.00;;;;;;5037192;28;20407;-77
2022/12/29 12:19:38;;;;;;;22.17;5.13;;;10.90;94.90;;;;;;5036881;28;20021;-76
2022/12/29 12:22:28;;;;;;;21.42;5.97;;;10.80;94.50;;;;;;5036619;28;20028;-74
2022/12/29 12:25:01;;;;;;;15.43;3.35;;;10.90;94.10;;;;;;5029621;28;20049;-75
2022/12/29 12:27:52;;;;;;;17.05;4.75;;;11.00;94.30;;;;;;5034610;28;20025;-75
2022/12/29 12:30:24;;;;;;;16.30;4.47;;;11.20;93.80;;;;;;5035902;28;20433;-75
2022/12/29 12:33:02;;;;;;;14.23;4.50;;;11.20;93.50;;;;;;5035521;28;20025;-75
2022/12/29 12:35:50;;;;;;;19.80;5.03;;;11.30;93.50;;;;;;5028358;28;20021;-72
2022/12/29 12:38:39;;;;;;;14.68;4.32;;;11.20;93.40;;;;;;5029977;28;20044;-71
2022/12/29 12:41:32;;;;;;;18.75;4.32;;;11.30;93.40;;;;;;5034301;28;20278;-73
2022/12/29 12:44:09;;;;;;;14.43;5.05;;;11.30;93.10;;;;;;5030017;28;20041;-74
2022/12/29 12:47:00;;;;;;;18.30;5.40;;;11.40;93.00;;;;;;5027983;28;20053;-74
2022/12/29 12:49:47;;;;;;;14.65;4.15;;;11.80;92.40;;;;;;5030009;28;20045;-73
2022/12/29 12:52:40;;;;;;;11.68;3.75;;;12.20;91.80;;;;;;5031066;28;20035;-73
2022/12/29 12:55:30;;;;;;;11.27;3.40;;;12.30;91.30;;;;;;5029547;28;20029;-73
2022/12/29 12:58:03;;;;;;;;;;;12.20;91.10;;;;;;5027037;28;20033;-73
2022/12/29 13:00:40;;;;;;;13.38;4.25;;;12.10;90.90;;;;;;5032010;28;19917;-73
2022/12/29 13:03:09;;;;;;;19.85;4.32;;;11.90;91.10;;;;;;5028977;28;20040;-72
2022/12/29 13:05:56;;;;;;;19.77;3.67;;;11.80;91.50;;;;;;5035140;28;20494;-73
2022/12/29 13:08:50;;;;;;;19.60;8.27;;;11.80;91.60;;;;;;5031388;28;20083;-73
2022/12/29 13:11:33;;;;;;;13.13;4.00;;;11.60;91.70;;;;;;5028152;28;20021;-73
2022/12/29 13:14:27;;;;;;;23.10;4.45;;;11.50;92.10;;;;;;5030449;28;20020;-72
2022/12/29 13:17:11;;;;;;;14.35;3.90;;;11.50;92.30;;;;;;5029184;28;20034;-71
2022/12/29 13:20:01;;;;;;;15.82;5.20;;;11.40;92.70;;;;;;5029833;28;20035;-71
2022/12/29 13:22:36;;;;;;;;;;;11.40;93.00;;;;;;5014139;28;20024;-72
2022/12/29 13:25:23;;;;;;;17.73;5.15;;;11.50;93.00;;;;;;5032942;28;19917;-73
2022/12/29 13:28:04;;;;;;;15.90;4.20;;;11.40;92.90;;;;;;5029357;28;20112;-71
2022/12/29 13:30:42;;;;;;;20.52;4.25;;;11.40;93.10;;;;;;5031657;28;20033;-73
2022/12/29 13:33:49;;;;;;;16.77;4.50;;;11.30;93.00;;;;;;5027427;28;20091;-72
2022/12/29 13:36:42;;;;;;;13.85;4.03;;;11.20;93.00;;;;;;5032133;28;20024;-72
2022/12/29 13:39:18;;;;;;;11.45;3.70;;;11.20;93.50;;;;;;5029021;28;20029;-72
2022/12/29 13:41:54;;;;;;;20.25;4.72;;;11.20;93.40;;;;;;5037202;28;20044;-72
2022/12/29 13:44:27;;;;;;;16.70;4.13;;;11.10;93.30;;;;;;5033823;28;20514;-72
2022/12/29 13:46:54;;;;;;;15.73;3.83;;;11.20;93.40;;;;;;5038469;28;20044;-72